createdAt,value
2022-10-22T00:00:08.243Z,11.73
2022-10-22T00:02:35.791Z,12.20
2022-10-22T00:05:02.309Z,13.13
2022-10-22T00:07:28.826Z,13.00
2022-10-22T00:09:55.425Z,12.63
2022-10-22T00:12:22.285Z,12.40
2022-10-22T00:14:48.829Z,13.40
2022-10-22T00:17:15.378Z,14.65
2022-10-22T00:19:41.933Z,12.85
2022-10-22T00:22:09.979Z,11.75
2022-10-22T00:24:38.224Z,13.48
2022-10-22T00:27:06.187Z,12.17
2022-10-22T00:29:32.821Z,10.73
2022-10-22T00:31:59.399Z,10.18
2022-10-22T00:34:26.138Z,10.65
2022-10-22T00:36:53.290Z,11.88
2022-10-22T00:39:22.047Z,10.70
2022-10-22T00:41:50.102Z,11.07
2022-10-22T00:44:54.302Z,10.23
2022-10-22T00:47:23.819Z,11.25
2022-10-22T00:49:51.813Z,11.93
2022-10-22T00:52:19.961Z,10.67
2022-10-22T00:54:46.897Z,10.75
2022-10-22T00:57:13.894Z,10.60
2022-10-22T00:59:40.543Z,9.50
2022-10-22T01:02:07.085Z,11.27
2022-10-22T01:04:33.635Z,10.73
2022-10-22T01:07:00.209Z,10.77
2022-10-22T01:09:41.955Z,11.18
2022-10-22T01:12:30.407Z,10.35
2022-10-22T01:15:15.560Z,10.25
2022-10-22T01:17:55.707Z,11.13
2022-10-22T01:20:41.187Z,11.15
2022-10-22T01:23:17.224Z,11.20
2022-10-22T01:25:58.477Z,11.93
2022-10-22T01:28:57.849Z,10.85
2022-10-22T01:31:27.620Z,10.33
2022-10-22T01:33:55.181Z,11.38
2022-10-22T01:36:22.054Z,10.00
2022-10-22T01:38:49.839Z,9.63
2022-10-22T01:41:16.522Z,9.45
2022-10-22T01:43:43.101Z,9.07
2022-10-22T01:46:11.525Z,8.13
2022-10-22T01:48:57.851Z,9.98
2022-10-22T01:51:30.946Z,8.98
2022-10-22T01:54:27.296Z,8.93
2022-10-22T01:57:17.819Z,9.27
2022-10-22T02:00:07.952Z,8.75
2022-10-22T02:02:43.525Z,4.32
2022-10-22T02:05:18.889Z,3.38
2022-10-22T02:08:01.273Z,2.38
2022-10-22T02:10:29.583Z,2.40
2022-10-22T02:12:58.454Z,3.17
2022-10-22T02:15:27.577Z,2.63
2022-10-22T02:17:57.114Z,1.50
2022-10-22T02:20:28.473Z,3.15
2022-10-22T02:22:56.007Z,2.13
2022-10-22T02:25:27.570Z,2.00
2022-10-22T02:28:16.015Z,2.20
2022-10-22T02:30:47.369Z,2.20
2022-10-22T02:33:21.030Z,2.13
2022-10-22T02:35:49.689Z,1.87
2022-10-22T02:38:16.909Z,3.15
2022-10-22T02:40:43.632Z,2.00
2022-10-22T02:43:10.147Z,1.75
2022-10-22T02:45:36.855Z,2.10
2022-10-22T02:48:03.968Z,1.70
2022-10-22T02:50:30.513Z,1.60
2022-10-22T02:52:56.957Z,1.35
2022-10-22T02:55:23.480Z,1.10
2022-10-22T02:57:49.967Z,1.15
2022-10-22T03:00:16.622Z,1.60
2022-10-22T03:02:43.059Z,1.60
2022-10-22T03:05:09.694Z,1.50
2022-10-22T03:07:36.189Z,1.73
2022-10-22T03:10:02.845Z,1.40
2022-10-22T03:12:29.960Z,1.23
2022-10-22T03:14:56.452Z,1.23
2022-10-22T03:17:22.956Z,1.50
2022-10-22T03:19:49.439Z,1.42
2022-10-22T03:22:23.021Z,3.55
2022-10-22T03:24:53.731Z,1.30
2022-10-22T03:27:21.896Z,2.47
2022-10-22T03:29:50.822Z,2.22
2022-10-22T03:32:17.319Z,1.92
2022-10-22T03:34:43.875Z,2.25
2022-10-22T03:37:10.780Z,2.10
2022-10-22T03:39:38.154Z,2.10
2022-10-22T03:42:06.563Z,2.03
2022-10-22T03:44:33.406Z,2.50
2022-10-22T03:47:02.514Z,2.13
2022-10-22T03:49:29.715Z,2.40
2022-10-22T03:51:56.221Z,2.30
2022-10-22T03:54:22.692Z,3.10
2022-10-22T03:56:49.174Z,2.80
2022-10-22T03:59:16.077Z,3.03
2022-10-22T04:01:42.569Z,1.53
2022-10-22T04:04:09.075Z,2.60
2022-10-22T04:06:35.634Z,2.55
2022-10-22T04:09:02.264Z,2.15
2022-10-22T04:11:28.853Z,1.60
2022-10-22T04:13:55.356Z,1.87
2022-10-22T04:16:25.039Z,1.42
2022-10-22T04:18:54.043Z,1.83
2022-10-22T04:21:20.617Z,1.83
2022-10-22T04:23:52.859Z,1.83
2022-10-22T04:26:19.945Z,1.60
2022-10-22T04:28:48.474Z,1.60
2022-10-22T04:31:17.941Z,1.70
2022-10-22T04:33:44.510Z,1.55
2022-10-22T04:36:16.854Z,1.70
2022-10-22T04:38:45.519Z,1.80
2022-10-22T04:41:17.306Z,1.40
2022-10-22T04:43:44.949Z,1.83
2022-10-22T04:46:15.076Z,1.30
2022-10-22T04:48:42.968Z,1.55
2022-10-22T04:51:12.639Z,1.17
2022-10-22T04:53:40.524Z,1.00
2022-10-22T04:56:16.317Z,1.55
2022-10-22T04:58:43.877Z,1.40
2022-10-22T05:01:11.451Z,1.08
2022-10-22T05:03:38.054Z,1.53
2022-10-22T05:06:04.703Z,1.10
2022-10-22T05:08:31.302Z,1.35
2022-10-22T05:10:57.786Z,1.30
2022-10-22T05:13:24.294Z,1.30
2022-10-22T05:15:50.994Z,1.40
2022-10-22T05:18:20.315Z,1.70
2022-10-22T05:20:49.144Z,1.25
2022-10-22T05:23:15.729Z,0.82
2022-10-22T05:25:42.253Z,1.00
2022-10-22T05:28:08.858Z,1.40
2022-10-22T05:30:35.510Z,1.10
2022-10-22T05:33:02.021Z,1.20
2022-10-22T05:35:28.628Z,1.30
2022-10-22T05:40:31.234Z,1.00
2022-10-22T05:42:58.818Z,0.90
2022-10-22T05:45:25.272Z,1.13
2022-10-22T05:47:52.274Z,1.27
2022-10-22T05:50:18.810Z,1.02
2022-10-22T05:52:45.321Z,1.13
2022-10-22T05:55:11.858Z,0.88
2022-10-22T05:57:39.733Z,3.05
2022-10-22T06:00:06.947Z,1.20
2022-10-22T06:02:33.659Z,1.42
2022-10-22T06:05:00.184Z,1.20
2022-10-22T06:07:26.681Z,1.30
2022-10-22T06:09:53.760Z,1.10
2022-10-22T06:12:20.262Z,1.30
2022-10-22T06:14:46.800Z,1.00
2022-10-22T06:17:13.494Z,1.27
2022-10-22T06:19:39.969Z,1.15
2022-10-22T06:22:06.586Z,1.50
2022-10-22T06:24:33.226Z,1.48
2022-10-22T06:26:59.874Z,1.40
2022-10-22T06:29:26.367Z,1.03
2022-10-22T06:31:52.831Z,2.05
2022-10-22T06:34:19.532Z,1.50
2022-10-22T06:36:46.855Z,3.33
2022-10-22T06:39:16.627Z,1.38
2022-10-22T06:41:43.157Z,1.60
2022-10-22T06:44:15.595Z,1.70
2022-10-22T06:46:43.575Z,2.60
2022-10-22T06:49:13.920Z,1.80
2022-10-22T06:51:40.505Z,2.15
2022-10-22T06:54:07.209Z,1.73
2022-10-22T06:56:33.778Z,1.77
2022-10-22T06:59:00.322Z,1.48
2022-10-22T07:01:30.794Z,1.10
2022-10-22T07:03:57.747Z,1.52
2022-10-22T07:06:25.882Z,1.90
2022-10-22T07:08:54.006Z,3.08
2022-10-22T07:11:23.214Z,2.47
2022-10-22T07:13:49.881Z,1.77
2022-10-22T07:16:17.713Z,1.42
2022-10-22T07:18:45.190Z,0.93
2022-10-22T07:21:13.610Z,2.55
2022-10-22T07:23:40.351Z,1.40
2022-10-22T07:26:08.433Z,1.00
2022-10-22T07:28:37.921Z,0.95
2022-10-22T07:31:04.817Z,1.77
2022-10-22T07:33:31.338Z,2.10
2022-10-22T07:36:02.817Z,1.42
2022-10-22T07:38:29.745Z,0.80
2022-10-22T07:40:56.388Z,0.82
2022-10-22T07:43:23.381Z,1.03
2022-10-22T07:45:50.226Z,1.33
2022-10-22T07:48:17.115Z,1.65
2022-10-22T07:53:11.218Z,1.33
2022-10-22T07:55:37.874Z,1.50
2022-10-22T07:58:04.415Z,0.90
2022-10-22T08:00:31.036Z,1.10
2022-10-22T08:02:57.543Z,1.05
2022-10-22T08:05:24.192Z,1.15
2022-10-22T08:07:50.674Z,1.07
2022-10-22T08:10:17.450Z,1.13
2022-10-22T08:12:44.265Z,1.02
2022-10-22T08:15:11.060Z,1.20
2022-10-22T08:17:37.745Z,1.50
2022-10-22T08:20:04.610Z,1.20
2022-10-22T08:22:31.261Z,0.80
2022-10-22T08:24:57.866Z,1.00
2022-10-22T08:27:24.374Z,1.13
2022-10-22T08:29:50.895Z,0.70
2022-10-22T08:32:17.571Z,0.70
2022-10-22T08:34:44.073Z,0.77
2022-10-22T08:37:14.196Z,0.70
2022-10-22T08:39:44.569Z,0.90
2022-10-22T08:42:29.762Z,1.20
2022-10-22T08:45:13.946Z,0.70
2022-10-22T08:48:02.428Z,0.47
2022-10-22T08:50:35.505Z,1.45
2022-10-22T08:53:06.615Z,0.70
2022-10-22T08:55:37.349Z,1.20
2022-10-22T08:58:20.209Z,0.60
2022-10-22T09:00:50.725Z,1.17
2022-10-22T09:04:05.420Z,0.73
2022-10-22T09:06:35.257Z,0.80
2022-10-22T09:09:05.976Z,0.73
2022-10-22T09:11:38.594Z,0.77
2022-10-22T09:14:06.345Z,0.80
2022-10-22T09:16:35.859Z,0.73
2022-10-22T09:19:24.366Z,0.95
2022-10-22T09:22:20.220Z,0.68
2022-10-22T09:24:49.194Z,1.03
2022-10-22T09:27:21.522Z,0.88
2022-10-22T09:29:48.345Z,0.85
2022-10-22T09:32:16.492Z,0.85
2022-10-22T09:34:47.947Z,0.65
2022-10-22T09:37:19.016Z,0.40
2022-10-22T09:39:50.706Z,0.80
2022-10-22T09:42:19.110Z,0.93
2022-10-22T09:44:52.700Z,0.80
2022-10-22T09:47:43.547Z,0.85
2022-10-22T09:50:39.226Z,0.60
2022-10-22T09:53:17.593Z,0.80
2022-10-22T09:55:49.057Z,0.98
2022-10-22T09:58:17.462Z,2.38
2022-10-22T10:00:46.489Z,1.48
2022-10-22T10:03:24.229Z,1.53
2022-10-22T10:06:00.168Z,1.00
2022-10-22T10:08:30.153Z,1.08
2022-10-22T10:11:02.665Z,0.55
2022-10-22T10:13:44.179Z,0.95
2022-10-22T10:16:34.950Z,1.63
2022-10-22T10:19:20.015Z,0.93
2022-10-22T10:22:30.309Z,1.10
2022-10-22T10:25:28.191Z,1.05
2022-10-22T10:28:00.689Z,0.93
2022-10-22T10:30:27.308Z,1.20
2022-10-22T10:33:29.590Z,1.05
2022-10-22T10:36:16.292Z,1.10
2022-10-22T10:38:58.238Z,1.02
2022-10-22T10:41:49.967Z,0.63
2022-10-22T10:44:40.952Z,1.47
2022-10-22T10:47:13.725Z,0.95
2022-10-22T10:49:42.512Z,1.15
2022-10-22T10:52:22.781Z,0.70
2022-10-22T10:54:55.287Z,0.95
2022-10-22T10:57:37.021Z,0.77
2022-10-22T11:00:11.550Z,1.73
2022-10-22T11:03:06.628Z,0.88
2022-10-22T11:05:38.341Z,0.60
2022-10-22T11:08:14.610Z,0.80
2022-10-22T11:10:49.565Z,0.70
2022-10-22T11:13:22.367Z,0.93
2022-10-22T11:15:55.091Z,1.23
2022-10-22T11:18:32.238Z,0.65
2022-10-22T11:21:13.201Z,0.60
2022-10-22T11:24:08.110Z,0.50
2022-10-22T11:26:56.920Z,0.68
2022-10-22T11:29:29.433Z,0.93
2022-10-22T11:32:01.484Z,0.80
2022-10-22T11:34:54.332Z,1.05
2022-10-22T11:37:24.341Z,0.80
2022-10-22T11:39:53.755Z,0.90
2022-10-22T11:42:33.131Z,0.80
2022-10-22T11:45:28.553Z,1.85
2022-10-22T11:48:09.977Z,1.20
2022-10-22T11:50:52.848Z,1.10
2022-10-22T11:53:31.169Z,1.02
2022-10-22T11:56:22.378Z,0.95
2022-10-22T11:58:52.308Z,1.05
2022-10-22T12:01:27.177Z,1.08
2022-10-22T12:04:05.967Z,0.67
2022-10-22T12:06:53.126Z,1.02
2022-10-22T12:09:22.161Z,1.85
2022-10-22T12:11:50.927Z,1.10
2022-10-22T12:14:22.880Z,1.27
2022-10-22T12:17:05.585Z,0.90
2022-10-22T12:19:37.410Z,0.60
2022-10-22T12:22:10.028Z,0.80
2022-10-22T12:24:44.541Z,1.42
2022-10-22T12:27:22.848Z,0.90
2022-10-22T12:29:58.430Z,2.37
2022-10-22T12:32:37.409Z,1.65
2022-10-22T12:35:14.425Z,0.95
2022-10-22T12:37:41.343Z,1.00
2022-10-22T12:40:26.369Z,1.20
2022-10-22T12:42:55.985Z,1.60
2022-10-22T12:45:25.557Z,3.78
2022-10-22T12:47:56.809Z,1.30
2022-10-22T12:50:31.074Z,3.05
2022-10-22T12:52:57.641Z,1.00
2022-10-22T12:55:25.909Z,1.60
2022-10-22T12:57:53.041Z,1.05
2022-10-22T13:00:23.180Z,0.90
2022-10-22T13:02:49.774Z,0.75
2022-10-22T13:05:19.342Z,1.02
2022-10-22T13:07:54.271Z,1.00
2022-10-22T13:10:32.232Z,1.00
2022-10-22T13:12:59.134Z,0.85
2022-10-22T13:15:28.324Z,0.82
2022-10-22T13:18:22.363Z,0.90
2022-10-22T13:20:58.809Z,1.07
2022-10-22T13:23:28.071Z,1.05
2022-10-22T13:25:59.250Z,0.70
2022-10-22T13:28:26.674Z,0.90
2022-10-22T13:30:59.146Z,1.00
2022-10-22T13:33:36.833Z,0.70
2022-10-22T13:36:03.822Z,1.08
2022-10-22T13:38:30.937Z,1.30
2022-10-22T13:40:58.577Z,0.80
2022-10-22T13:43:25.758Z,1.27
2022-10-22T13:45:55.438Z,0.70
2022-10-22T13:48:23.709Z,1.05
2022-10-22T13:50:51.376Z,1.55
2022-10-22T13:53:20.533Z,1.42
2022-10-22T13:55:47.511Z,1.65
2022-10-22T14:00:57.700Z,0.80
2022-10-22T14:03:31.473Z,1.52
2022-10-22T14:05:58.352Z,2.47
2022-10-22T14:08:26.913Z,1.00
2022-10-22T14:10:53.764Z,1.00
2022-10-22T14:13:21.492Z,0.95
2022-10-22T14:15:50.188Z,1.17
2022-10-22T14:18:26.259Z,0.77
2022-10-22T14:20:59.790Z,0.85
2022-10-22T14:23:31.392Z,2.20
2022-10-22T14:25:59.251Z,1.77
2022-10-22T14:28:25.843Z,2.25
2022-10-22T14:30:53.581Z,1.00
2022-10-22T14:33:31.404Z,2.10
2022-10-22T14:36:00.217Z,0.60
2022-10-22T14:38:26.800Z,0.90
2022-10-22T14:40:53.519Z,0.95
2022-10-22T14:43:28.923Z,0.90
2022-10-22T14:45:55.880Z,1.50
2022-10-22T14:48:22.743Z,1.07
2022-10-22T14:50:49.382Z,1.30
2022-10-22T14:53:16.899Z,1.80
2022-10-22T14:55:44.673Z,1.70
2022-10-22T14:58:12.385Z,1.58
2022-10-22T15:00:42.029Z,1.13
2022-10-22T15:03:08.912Z,1.55
2022-10-22T15:05:36.271Z,1.73
2022-10-22T15:08:02.907Z,1.27
2022-10-22T15:10:29.450Z,1.17
2022-10-22T15:12:55.916Z,0.97
2022-10-22T15:15:23.231Z,1.10
2022-10-22T15:17:51.204Z,1.38
2022-10-22T15:20:17.705Z,2.80
2022-10-22T15:22:45.268Z,0.95
2022-10-22T15:25:13.554Z,1.27
2022-10-22T15:27:40.102Z,1.00
2022-10-22T15:30:07.778Z,2.88
2022-10-22T15:32:34.328Z,1.90
2022-10-22T15:35:05.863Z,2.63
2022-10-22T15:37:32.442Z,1.23
2022-10-22T15:40:00.434Z,1.10
2022-10-22T15:42:26.946Z,1.23
2022-10-22T15:45:00.034Z,1.02
2022-10-22T15:47:29.312Z,1.17
2022-10-22T15:49:55.803Z,1.20
2022-10-22T15:52:22.566Z,0.80
2022-10-22T15:54:49.062Z,1.00
2022-10-22T15:57:15.673Z,0.95
2022-10-22T15:59:42.212Z,1.73
2022-10-22T16:02:10.788Z,1.47
2022-10-22T16:04:38.294Z,1.27
2022-10-22T16:07:04.788Z,1.02
2022-10-22T16:09:31.315Z,0.85
2022-10-22T16:11:57.950Z,1.48
2022-10-22T16:14:24.661Z,1.57
2022-10-22T16:16:54.163Z,1.17
2022-10-22T16:19:22.519Z,1.33
2022-10-22T16:21:54.797Z,1.23
2022-10-22T16:24:22.277Z,1.25
2022-10-22T16:26:49.580Z,1.30
2022-10-22T16:29:16.246Z,3.03
2022-10-22T16:31:43.986Z,3.88
2022-10-22T16:34:10.813Z,2.90
2022-10-22T16:36:38.192Z,2.20
2022-10-22T16:39:05.943Z,2.30
2022-10-22T16:41:35.346Z,2.03
2022-10-22T16:44:05.488Z,2.10
2022-10-22T16:46:33.279Z,2.10
2022-10-22T16:48:59.890Z,1.60
2022-10-22T16:51:27.997Z,1.50
2022-10-22T16:53:56.364Z,1.35
2022-10-22T16:56:23.779Z,1.40
2022-10-22T16:58:53.231Z,1.23
2022-10-22T17:01:21.731Z,1.63
2022-10-22T17:03:48.302Z,1.60
2022-10-22T17:06:15.320Z,1.80
2022-10-22T17:08:42.463Z,1.33
2022-10-22T17:11:11.711Z,1.50
2022-10-22T17:13:40.563Z,1.83
2022-10-22T17:16:10.060Z,1.63
2022-10-22T17:18:38.365Z,1.70
2022-10-22T17:21:06.266Z,1.30
2022-10-22T17:23:32.765Z,1.80
2022-10-22T17:26:01.791Z,3.25
2022-10-22T17:28:29.388Z,1.60
2022-10-22T17:31:22.402Z,1.85
2022-10-22T17:33:51.505Z,3.33
2022-10-22T17:36:19.247Z,2.15
2022-10-22T17:38:49.112Z,1.95
2022-10-22T17:41:18.777Z,2.83
2022-10-22T17:46:22.835Z,2.60
2022-10-22T17:48:52.770Z,2.30
2022-10-22T17:51:19.870Z,2.70
2022-10-22T17:53:46.878Z,5.67
2022-10-22T17:56:16.100Z,3.15
2022-10-22T17:58:42.669Z,3.08
2022-10-22T18:01:18.000Z,2.45
2022-10-22T18:03:44.877Z,2.80
2022-10-22T18:06:11.684Z,2.77
2022-10-22T18:08:38.220Z,2.60
2022-10-22T18:11:13.889Z,3.13
2022-10-22T18:13:40.388Z,2.70
2022-10-22T18:16:06.985Z,2.80
2022-10-22T18:18:34.602Z,3.13
2022-10-22T18:21:01.866Z,2.75
2022-10-22T18:23:28.422Z,3.78
2022-10-22T18:25:55.267Z,4.50
2022-10-22T18:28:21.888Z,3.47
2022-10-22T18:30:48.721Z,3.50
2022-10-22T18:33:18.276Z,4.40
2022-10-22T18:35:46.291Z,5.20
2022-10-22T18:38:13.092Z,6.28
2022-10-22T18:40:46.661Z,7.30
2022-10-22T18:43:13.291Z,6.90
2022-10-22T18:45:47.646Z,8.88
2022-10-22T18:48:16.689Z,8.55
2022-10-22T18:50:43.318Z,8.98
2022-10-22T18:53:12.241Z,10.00
2022-10-22T18:55:39.697Z,8.93
2022-10-22T18:58:06.611Z,9.40
2022-10-22T19:00:35.352Z,8.98
2022-10-22T19:03:03.146Z,10.05
2022-10-22T19:05:29.902Z,10.52
2022-10-22T19:07:56.410Z,9.63
2022-10-22T19:10:23.119Z,9.18
2022-10-22T19:12:49.658Z,11.55
2022-10-22T19:15:16.416Z,10.25
2022-10-22T19:17:43.257Z,10.80
2022-10-22T19:20:10.384Z,10.90
2022-10-22T19:22:36.883Z,9.77
2022-10-22T19:25:05.985Z,11.73
2022-10-22T19:27:36.328Z,12.20
2022-10-22T19:30:04.634Z,10.68
2022-10-22T19:32:31.329Z,10.23
2022-10-22T19:34:58.068Z,8.73
2022-10-22T19:37:24.747Z,10.20
2022-10-22T19:39:52.313Z,9.75
2022-10-22T19:42:20.715Z,10.00
2022-10-22T19:44:47.323Z,10.10
2022-10-22T19:47:15.310Z,9.10
2022-10-22T19:49:42.628Z,10.27
2022-10-22T19:52:09.335Z,9.77
2022-10-22T19:54:40.626Z,9.73
2022-10-22T19:57:08.431Z,9.40
2022-10-22T19:59:35.904Z,9.85
2022-10-22T20:02:02.524Z,9.73
2022-10-22T20:04:29.975Z,12.75
2022-10-22T20:06:57.028Z,11.50
2022-10-22T20:09:23.965Z,10.23
2022-10-22T20:11:50.958Z,10.43
2022-10-22T20:14:17.698Z,11.07
2022-10-22T20:16:44.291Z,10.25
2022-10-22T20:19:13.397Z,12.80
2022-10-22T20:21:40.792Z,10.23
2022-10-22T20:24:07.823Z,10.45
2022-10-22T20:26:34.695Z,11.77
2022-10-22T20:29:01.729Z,10.25
2022-10-22T20:31:29.758Z,10.68
2022-10-22T20:34:01.096Z,9.70
2022-10-22T20:36:29.544Z,9.50
2022-10-22T20:39:02.212Z,9.73
2022-10-22T20:41:29.739Z,10.13
2022-10-22T20:43:56.998Z,10.02
2022-10-22T20:46:26.696Z,9.40
2022-10-22T20:48:56.617Z,10.27
2022-10-22T20:51:23.391Z,10.38
2022-10-22T20:53:50.316Z,10.55
2022-10-22T20:56:18.023Z,9.75
2022-10-22T20:58:48.942Z,9.80
2022-10-22T21:01:24.262Z,9.50
2022-10-22T21:03:52.002Z,10.25
2022-10-22T21:06:23.037Z,10.82
2022-10-22T21:08:51.530Z,10.98
2022-10-22T21:11:18.954Z,11.17
2022-10-22T21:13:45.838Z,11.82
2022-10-22T21:16:14.674Z,11.30
2022-10-22T21:18:41.948Z,10.30
2022-10-22T21:21:09.762Z,10.07
2022-10-22T21:23:37.271Z,8.87
2022-10-22T21:26:04.614Z,10.10
2022-10-22T21:28:37.097Z,9.70
2022-10-22T21:31:05.689Z,8.60
2022-10-22T21:33:36.099Z,10.88
2022-10-22T21:36:02.771Z,9.10
2022-10-22T21:38:29.594Z,8.82
2022-10-22T21:40:56.147Z,9.38
2022-10-22T21:43:22.685Z,8.23
2022-10-22T21:45:49.307Z,11.88
2022-10-22T21:48:16.507Z,9.10
2022-10-22T21:50:44.246Z,9.50
2022-10-22T21:53:12.112Z,8.70
2022-10-22T21:55:41.957Z,8.10
2022-10-22T21:58:09.030Z,11.57
2022-10-22T22:00:35.891Z,10.30
2022-10-22T22:03:03.450Z,8.10
2022-10-22T22:05:30.063Z,10.07
2022-10-22T22:07:56.721Z,7.88
2022-10-22T22:10:25.238Z,8.27
2022-10-22T22:12:52.455Z,7.70
2022-10-22T22:15:20.403Z,7.88
2022-10-22T22:17:47.173Z,7.78
2022-10-22T22:20:14.007Z,6.95
2022-10-22T22:22:40.889Z,7.35
2022-10-22T22:25:07.997Z,7.27
2022-10-22T22:27:34.644Z,7.53
2022-10-22T22:30:02.525Z,7.13
2022-10-22T22:32:29.585Z,7.10
2022-10-22T22:34:56.532Z,8.00
2022-10-22T22:37:23.439Z,7.37
2022-10-22T22:39:50.616Z,8.00
2022-10-22T22:42:17.194Z,7.22
2022-10-22T22:44:44.025Z,6.85
2022-10-22T22:47:10.757Z,6.85
2022-10-22T22:49:37.379Z,7.03
2022-10-22T22:52:04.649Z,6.82
2022-10-22T22:54:31.509Z,7.00
2022-10-22T22:56:58.700Z,6.72
2022-10-22T22:59:25.252Z,7.20
2022-10-22T23:01:52.253Z,5.73
2022-10-22T23:04:23.684Z,6.82
2022-10-22T23:06:51.415Z,7.30
2022-10-22T23:11:52.046Z,6.43
2022-10-22T23:14:19.975Z,6.17
2022-10-22T23:16:50.115Z,6.88
2022-10-22T23:19:20.618Z,6.20
2022-10-22T23:21:49.903Z,6.20
2022-10-22T23:24:20.502Z,6.10
2022-10-22T23:26:49.788Z,6.20
2022-10-22T23:29:28.125Z,6.53
2022-10-22T23:31:56.169Z,7.22
2022-10-22T23:34:25.709Z,6.97
2022-10-22T23:36:52.758Z,6.95
2022-10-22T23:39:23.579Z,6.23
2022-10-22T23:41:51.592Z,7.05
2022-10-22T23:44:18.185Z,6.55
2022-10-22T23:46:45.022Z,6.43
2022-10-22T23:49:12.653Z,6.70
2022-10-22T23:51:40.174Z,7.20
2022-10-22T23:54:15.245Z,6.63
2022-10-22T23:56:42.071Z,6.63
2022-10-22T23:59:09.272Z,7.03
